Terminal Aerodrome Forecast
Issued by NWS Greer, SC

Home | Current Version | Previous Version | Text Only | Print | Product List | Glossary On
Versions: 1 2 3 4 5 6 7 8 9 10 11 12 13 14 15 16 17 18 19 20 21 22 23 24 25 26 27 28 29 30 31 32 33 34 35 36
000
FTUS42 KGSP 261736
TAFAVL
TAF
KAVL 261736Z 2618/2718 14004KT P6SM SCT030 SCT080
     FM261900 16006KT P6SM VCSH SCT035
     FM270100 16003KT P6SM SCT050
     FM270900 00000KT 3SM BR VCSH SCT005 BKN010
     FM271400 19003KT P6SM BKN025
     FM271600 19005KT P6SM BKN050=

USA.gov is the U.S. government's official web portal to all federal, state and local government web resources and services.